createdAt,value
2023-03-26T00:02:55.096Z,83.57
2023-03-26T00:08:00.822Z,83.48
2023-03-26T00:13:07.897Z,84.02
2023-03-26T00:18:13.798Z,83.61
2023-03-26T00:23:19.428Z,83.90
2023-03-26T00:28:26.435Z,84.27
2023-03-26T00:33:32.684Z,84.75
2023-03-26T00:38:39.593Z,85.12
2023-03-26T00:43:48.558Z,85.29
2023-03-26T00:48:54.632Z,85.36
2023-03-26T00:54:00.958Z,85.75
2023-03-26T00:59:06.941Z,85.76
2023-03-26T01:04:28.931Z,86.05
2023-03-26T01:09:37.849Z,86.12
2023-03-26T01:14:44.186Z,85.98
2023-03-26T01:20:04.865Z,86.06
2023-03-26T01:25:10.559Z,85.99
2023-03-26T01:30:28.031Z,86.01
2023-03-26T01:35:39.683Z,85.97
2023-03-26T01:40:54.320Z,86.08
2023-03-26T01:46:03.693Z,85.83
2023-03-26T01:51:11.038Z,86.33
2023-03-26T01:56:22.578Z,86.68
2023-03-26T02:01:46.502Z,86.55
2023-03-26T02:07:11.679Z,87.05
2023-03-26T02:12:18.754Z,87.04
2023-03-26T02:17:24.587Z,87.02
2023-03-26T02:22:30.276Z,87.12
2023-03-26T02:27:36.917Z,87.09
2023-03-26T02:32:44.288Z,87.18
2023-03-26T02:37:51.094Z,87.29
2023-03-26T02:42:58.851Z,87.09
2023-03-26T02:48:05.889Z,87.36
2023-03-26T02:53:31.503Z,87.01
2023-03-26T02:58:53.515Z,87.00
2023-03-26T03:04:00.819Z,87.19
2023-03-26T03:09:10.737Z,87.42
2023-03-26T03:14:17.861Z,87.33
2023-03-26T03:19:23.347Z,86.91
2023-03-26T03:24:28.840Z,87.40
2023-03-26T03:29:34.460Z,87.13
2023-03-26T03:34:51.260Z,87.23
2023-03-26T03:39:57.147Z,87.52
2023-03-26T03:45:04.691Z,87.00
2023-03-26T03:50:27.305Z,86.93
2023-03-26T03:55:34.421Z,86.87
2023-03-26T04:00:41.794Z,86.69
2023-03-26T04:05:55.663Z,86.76
2023-03-26T04:11:02.736Z,86.71
2023-03-26T04:16:26.245Z,86.77
2023-03-26T04:21:32.134Z,86.15
2023-03-26T04:26:38.237Z,86.00
2023-03-26T04:31:54.805Z,85.92
2023-03-26T04:37:03.627Z,85.91
2023-03-26T04:42:12.279Z,85.41
2023-03-26T04:47:23.630Z,85.10
2023-03-26T04:52:29.487Z,84.84
2023-03-26T04:57:44.760Z,84.91
2023-03-26T05:02:53.986Z,84.75
2023-03-26T05:08:00.890Z,84.02
2023-03-26T05:13:06.365Z,84.12
2023-03-26T05:18:13.539Z,84.05
2023-03-26T05:23:21.033Z,83.91
2023-03-26T05:28:28.419Z,84.39
2023-03-26T05:33:36.384Z,85.71
2023-03-26T05:38:46.501Z,85.90
2023-03-26T05:43:53.769Z,85.27
2023-03-26T05:49:01.056Z,82.97
2023-03-26T05:54:09.748Z,83.39
2023-03-26T05:59:35.484Z,83.04
2023-03-26T06:04:59.011Z,82.79
2023-03-26T06:10:18.528Z,82.81
2023-03-26T06:15:20.486Z,83.03
2023-03-26T06:20:27.698Z,82.57
2023-03-26T06:25:33.464Z,82.70
2023-03-26T06:30:44.039Z,82.50
2023-03-26T06:35:51.546Z,82.83
2023-03-26T06:41:08.053Z,82.65
2023-03-26T06:46:18.966Z,82.49
2023-03-26T06:51:26.512Z,82.46
2023-03-26T06:56:50.456Z,82.58
2023-03-26T07:01:57.688Z,81.87
2023-03-26T07:07:14.467Z,81.45
2023-03-26T07:12:38.068Z,80.91
2023-03-26T07:18:03.576Z,80.25
2023-03-26T07:23:14.820Z,80.49
2023-03-26T07:28:28.142Z,79.96
2023-03-26T07:33:47.530Z,79.72
2023-03-26T07:39:03.287Z,79.09
2023-03-26T07:44:28.850Z,79.85
2023-03-26T07:49:57.890Z,78.91
2023-03-26T07:55:09.245Z,77.97
2023-03-26T08:00:47.773Z,77.62
2023-03-26T08:06:08.698Z,76.93
2023-03-26T08:11:27.609Z,75.53
2023-03-26T08:16:48.133Z,75.99
2023-03-26T08:21:56.700Z,74.81
2023-03-26T08:27:05.425Z,76.90
2023-03-26T08:32:19.402Z,74.38
2023-03-26T08:37:26.656Z,73.78
2023-03-26T08:42:44.432Z,73.12
2023-03-26T08:48:09.524Z,72.05
2023-03-26T08:53:45.477Z,71.30
2023-03-26T08:59:15.188Z,72.47
2023-03-26T09:04:41.520Z,73.36
2023-03-26T09:09:50.339Z,73.87
2023-03-26T09:15:08.029Z,74.12
2023-03-26T09:20:45.921Z,74.25
2023-03-26T09:26:13.169Z,75.04
2023-03-26T09:31:27.552Z,72.96
2023-03-26T09:36:58.992Z,70.64
2023-03-26T09:42:11.687Z,70.87
2023-03-26T09:47:26.392Z,69.84
2023-03-26T09:52:43.943Z,68.83
2023-03-26T09:58:02.396Z,69.51
2023-03-26T10:03:24.726Z,68.88
2023-03-26T10:08:39.541Z,69.65
2023-03-26T10:13:50.814Z,67.73
2023-03-26T10:19:34.496Z,66.56
2023-03-26T10:25:14.864Z,65.24
2023-03-26T10:30:57.291Z,65.06
2023-03-26T10:36:27.016Z,64.89
2023-03-26T10:41:38.469Z,63.70
2023-03-26T10:47:01.873Z,63.42
2023-03-26T10:52:17.650Z,62.87
2023-03-26T10:57:50.055Z,63.30
2023-03-26T11:03:10.793Z,61.81
2023-03-26T11:08:31.208Z,60.91
2023-03-26T11:13:41.200Z,60.22
2023-03-26T11:19:10.935Z,60.96
2023-03-26T11:24:28.554Z,60.45
2023-03-26T11:29:59.363Z,61.07
2023-03-26T11:35:11.278Z,60.42
2023-03-26T11:40:38.142Z,59.63
2023-03-26T11:45:47.269Z,58.33
2023-03-26T11:50:58.647Z,58.99
2023-03-26T11:56:15.192Z,58.51
2023-03-26T12:01:30.992Z,58.45
2023-03-26T12:06:36.638Z,58.59
2023-03-26T12:11:44.585Z,57.53
2023-03-26T12:17:07.868Z,56.86
2023-03-26T12:22:31.530Z,55.77
2023-03-26T12:27:40.518Z,55.02
2023-03-26T12:32:47.155Z,55.26
2023-03-26T12:37:54.108Z,54.76
2023-03-26T12:44:46.779Z,54.98
2023-03-26T12:48:16.432Z,54.26
2023-03-26T12:53:44.790Z,55.44
2023-03-26T12:59:09.992Z,53.97
2023-03-26T13:04:27.657Z,54.63
2023-03-26T13:10:09.854Z,52.71
2023-03-26T13:15:33.220Z,51.93
2023-03-26T13:21:08.797Z,52.19
2023-03-26T13:26:34.444Z,50.97
2023-03-26T13:32:16.605Z,51.61
2023-03-26T13:37:42.002Z,50.92
2023-03-26T13:42:50.542Z,50.43
2023-03-26T13:47:59.378Z,50.52
2023-03-26T13:53:12.401Z,50.92
2023-03-26T13:58:26.376Z,51.83
2023-03-26T14:04:00.517Z,51.65
2023-03-26T14:09:18.311Z,51.92
2023-03-26T14:14:47.295Z,51.82
2023-03-26T14:20:22.994Z,50.86
2023-03-26T14:25:52.662Z,51.23
2023-03-26T14:31:13.481Z,50.88
2023-03-26T14:36:28.033Z,50.32
2023-03-26T14:41:45.803Z,51.01
2023-03-26T14:47:01.836Z,49.70
2023-03-26T14:52:19.072Z,48.32
2023-03-26T14:57:50.306Z,48.62
2023-03-26T15:03:22.626Z,49.11
2023-03-26T15:08:53.613Z,48.88
2023-03-26T15:14:26.620Z,48.33
2023-03-26T15:19:52.126Z,48.00
2023-03-26T15:25:19.653Z,48.07
2023-03-26T15:30:55.975Z,47.91
2023-03-26T15:36:09.447Z,47.44
2023-03-26T15:41:27.325Z,47.48
2023-03-26T15:46:45.165Z,47.27
2023-03-26T15:51:56.604Z,47.84
2023-03-26T15:57:11.180Z,47.87
2023-03-26T16:02:37.664Z,47.83
2023-03-26T16:07:48.936Z,48.26
2023-03-26T16:13:22.277Z,49.17
2023-03-26T16:18:31.286Z,49.49
2023-03-26T16:23:47.844Z,50.05
2023-03-26T16:28:55.811Z,49.44
2023-03-26T16:34:16.641Z,48.85
2023-03-26T16:39:27.891Z,49.30
2023-03-26T16:44:51.911Z,48.67
2023-03-26T16:50:27.751Z,49.09
2023-03-26T16:55:48.192Z,49.40
2023-03-26T17:01:02.566Z,49.35
2023-03-26T17:06:26.108Z,49.55
2023-03-26T17:11:40.514Z,49.36
2023-03-26T17:16:49.174Z,49.43
2023-03-26T17:22:17.581Z,49.41
2023-03-26T17:27:43.024Z,49.53
2023-03-26T17:33:07.347Z,49.74
2023-03-26T17:38:27.408Z,49.96
2023-03-26T17:43:52.341Z,50.37
2023-03-26T17:49:16.222Z,50.82
2023-03-26T17:54:34.061Z,51.34
2023-03-26T17:59:41.966Z,52.22
2023-03-26T18:04:50.341Z,52.48
2023-03-26T18:10:01.691Z,52.74
2023-03-26T18:15:16.232Z,53.32
2023-03-26T18:20:25.175Z,53.56
2023-03-26T18:25:34.180Z,54.08
2023-03-26T18:30:42.685Z,54.01
2023-03-26T18:35:54.120Z,54.50
2023-03-26T18:41:00.678Z,54.55
2023-03-26T18:46:07.074Z,54.89
2023-03-26T18:51:13.147Z,54.94
2023-03-26T18:56:39.709Z,55.20
2023-03-26T19:01:47.452Z,55.29
2023-03-26T19:06:56.942Z,55.37
2023-03-26T19:12:23.087Z,55.60
2023-03-26T19:17:31.580Z,55.79
2023-03-26T19:22:39.558Z,55.85
2023-03-26T19:27:45.885Z,55.97
2023-03-26T19:32:55.740Z,55.92
2023-03-26T19:38:02.853Z,55.98
2023-03-26T19:43:14.537Z,56.02
2023-03-26T19:48:45.614Z,56.42
2023-03-26T19:53:37.304Z,56.31
2023-03-26T19:58:43.606Z,56.40
2023-03-26T20:03:52.933Z,56.52
2023-03-26T20:08:59.066Z,56.80
2023-03-26T20:14:07.596Z,56.73
2023-03-26T20:19:14.575Z,57.84
2023-03-26T20:24:21.768Z,59.15
2023-03-26T20:29:29.593Z,60.01
2023-03-26T20:34:35.227Z,60.60
2023-03-26T20:39:41.669Z,61.26
2023-03-26T20:44:47.526Z,62.68
2023-03-26T20:49:53.098Z,62.93
2023-03-26T20:54:59.300Z,64.15
2023-03-26T21:00:23.455Z,64.04
2023-03-26T21:05:30.296Z,64.46
2023-03-26T21:10:36.535Z,64.77
2023-03-26T21:15:43.713Z,65.03
2023-03-26T21:20:52.195Z,64.92
2023-03-26T21:26:09.779Z,64.61
2023-03-26T21:31:20.736Z,64.97
2023-03-26T21:36:27.287Z,65.45
2023-03-26T21:41:36.565Z,65.58
2023-03-26T21:46:45.535Z,65.55
2023-03-26T21:51:51.677Z,65.82
2023-03-26T21:57:12.070Z,65.90
2023-03-26T22:02:26.515Z,65.85
2023-03-26T22:07:46.779Z,65.72
2023-03-26T22:12:53.940Z,65.92
2023-03-26T22:18:03.970Z,65.94
2023-03-26T22:23:10.936Z,66.14
2023-03-26T22:28:16.730Z,66.05
2023-03-26T22:33:22.401Z,65.87
2023-03-26T22:38:27.955Z,66.00
2023-03-26T22:43:33.456Z,65.79
2023-03-26T22:48:40.849Z,65.75
2023-03-26T22:53:46.708Z,66.13
2023-03-26T22:58:52.215Z,66.24
2023-03-26T23:03:58.123Z,66.24
2023-03-26T23:09:04.052Z,66.19
2023-03-26T23:14:10.034Z,66.23
2023-03-26T23:19:15.625Z,66.53
2023-03-26T23:24:21.246Z,66.65
2023-03-26T23:29:26.861Z,66.56
2023-03-26T23:34:32.509Z,66.56
2023-03-26T23:39:38.126Z,66.45
2023-03-26T23:44:45.338Z,66.57
2023-03-26T23:49:50.917Z,66.22
2023-03-26T23:54:59.091Z,66.08
